Storm Events Database

Event Details

Event Tornado
-- Scale F3
-- Length 17 Miles
-- Width 440 Yards
State OKLAHOMA
County/Area DELAWARE
WFO TSA
Report Source NWS STORM SURVEY
NCDC Data Source PDS
Begin Date 2006-03-12 21:18:00.0 CST
Begin Location 2S LEACH
Begin Lat/Lon 36.17/-94.92
End Date 2006-03-12 21:42:00.0 CST
End Location 4NE COLCORD
End Lat/Lon 36.30/-94.63
Deaths Direct/Indirect 0/0 (fatality details below, when available...)
Injuries Direct/Indirect 8/0
Property Damage 3M
Crop Damage
Event Narrative The first tornado, which touched down in northwestern Cherokee County, continued into southern Delaware County. Damage suggested the tornado widened and strengthened as it moved through southern Delaware County reaching a maximum width of around 1/4 of a mile. The tornado damaged 95 homes, destroying 42 of those homes. Five businesses were also damaged. Numerous trees were snapped or uprooted and about 100 power poles were downed, which resulted in more than 5000 people losing power as a result of the storm. The worst damage from this tornado was found from near Twin Oaks to about 4 miles west-southwest of Colcord. The tornado injured eight people.


     ‚Äč



All events for this episode:

Location County/Zone St. Date Time T.Z. Type Mag Dth Inj PrD CrD
Totals: 0 8 3.896M 0.00K
COPAN WASHINGTON CO. OK 03/12/2006 18:26 CST Hail 1.75 in. 0 0 25.00K 0.00K
PADEN OKFUSKEE CO. OK 03/12/2006 18:52 CST Hail 0.88 in. 0 0 0.00K 0.00K
SAND SPGS TULSA CO. OK 03/12/2006 18:57 CST Hail 0.75 in. 0 0 0.00K 0.00K
BARTLESVILLE WASHINGTON CO. OK 03/12/2006 18:59 CST Hail 1.75 in. 0 0 0.00K 0.00K
LENAPAH NOWATA CO. OK 03/12/2006 19:11 CST Hail 0.88 in. 0 0 0.00K 0.00K
BRISTOW CREEK CO. OK 03/12/2006 19:23 CST Hail 1.25 in. 0 0 0.00K 0.00K
SPERRY TULSA CO. OK 03/12/2006 19:23 CST Hail 0.75 in. 0 0 0.00K 0.00K
KIEFER CREEK CO. OK 03/12/2006 19:24 CST Hail 0.75 in. 0 0 0.00K 0.00K
SAPULPA CREEK CO. OK 03/12/2006 19:28 CST Hail 1.50 in. 0 0 10.00K 0.00K
OWASSO TULSA CO. OK 03/12/2006 19:30 CST Hail 1.75 in. 0 0 25.00K 0.00K
SAPULPA CREEK CO. OK 03/12/2006 19:30 CST Hail 0.88 in. 0 0 0.00K 0.00K
TULSA TULSA CO. OK 03/12/2006 19:33 CST Hail 0.75 in. 0 0 0.00K 0.00K
TULSA TULSA CO. OK 03/12/2006 19:36 CST Hail 1.00 in. 0 0 0.00K 0.00K
TULSA TULSA CO. OK 03/12/2006 19:37 CST Hail 1.00 in. 0 0 0.00K 0.00K
CLAREMORE ROGERS CO. OK 03/12/2006 19:47 CST Hail 1.00 in. 0 0 0.00K 0.00K
CLAREMORE ROGERS CO. OK 03/12/2006 19:58 CST Hail 0.75 in. 0 0 0.00K 0.00K
OWASSO TULSA CO. OK 03/12/2006 20:05 CST Hail 1.25 in. 0 0 0.00K 0.00K
BUSHYHEAD ROGERS CO. OK 03/12/2006 20:07 CST Hail 1.00 in. 0 0 0.00K 0.00K
COWETA WAGONER CO. OK 03/12/2006 20:12 CST Hail 0.75 in. 0 0 0.00K 0.00K
COWETA WAGONER CO. OK 03/12/2006 20:29 CST Hail 0.75 in. 0 0 0.00K 0.00K
VINITA CRAIG CO. OK 03/12/2006 20:30 CST Hail 1.00 in. 0 0 0.00K 0.00K
MURPHY MAYES CO. OK 03/12/2006 20:41 CST Hail 0.88 in. 0 0 0.00K 0.00K
VINITA CRAIG CO. OK 03/12/2006 20:42 CST Hail 1.00 in. 0 0 0.00K 0.00K
LOCUST GROVE MAYES CO. OK 03/12/2006 20:54 CST Hail 0.88 in. 0 0 0.00K 0.00K
WYANDOTTE OTTAWA CO. OK 03/12/2006 21:03 CST Hail 1.00 in. 0 0 0.00K 0.00K
LOCUST GROVE MAYES CO. OK 03/12/2006 21:08 CST Hail 1.75 in. 0 0 25.00K 0.00K
PEGGS CHEROKEE CO. OK 03/12/2006 21:09 CST Tornado F1 0 0 50.00K 0.00K
LEACH DELAWARE CO. OK 03/12/2006 21:18 CST Tornado F3 0 8 3.000M 0.00K
COLCORD DELAWARE CO. OK 03/12/2006 21:37 CST Tornado F1 0 0 750.00K 0.00K
WELCH CRAIG CO. OK 03/12/2006 23:02 CST Hail 0.88 in. 0 0 0.00K 0.00K
CLAREMORE ROGERS CO. OK 03/12/2006 23:05 CST Hail 0.88 in. 0 0 0.00K 0.00K
COMMERCE OTTAWA CO. OK 03/12/2006 23:18 CST Hail 0.75 in. 0 0 0.00K 0.00K
PICHER OTTAWA CO. OK 03/12/2006 23:20 CST Hail 1.00 in. 0 0 0.00K 0.00K
ADAIR MAYES CO. OK 03/12/2006 23:30 CST Thunderstorm Wind 61 kts. EG 0 0 1.00K 0.00K
VINITA CRAIG CO. OK 03/12/2006 23:41 CST Hail 0.88 in. 0 0 0.00K 0.00K
BERNICE DELAWARE CO. OK 03/12/2006 23:50 CST Hail 0.88 in. 0 0 0.00K 0.00K
BARON ADAIR CO. OK 03/13/2006 00:27 CST Hail 1.00 in. 0 0 0.00K 0.00K
TAMAHA HASKELL CO. OK 03/13/2006 00:50 CST Hail 0.75 in. 0 0 0.00K 0.00K
VIAN SEQUOYAH CO. OK 03/13/2006 00:53 CST Thunderstorm Wind 61 kts. EG 0 0 10.00K 0.00K
VIAN SEQUOYAH CO. OK 03/13/2006 00:55 CST Hail 0.88 in. 0 0 0.00K 0.00K
PANAMA LE FLORE CO. OK 03/13/2006 01:44 CST Thunderstorm Wind 55 kts. MG 0 0 0.00K 0.00K
HEAVENER LE FLORE CO. OK 03/13/2006 02:02 CST Thunderstorm Wind 52 kts. EG 0 0 0.00K 0.00K
HEAVENER LE FLORE CO. OK 03/13/2006 02:02 CST Hail 1.00 in. 0 0 0.00K 0.00K
OCTAVIA LE FLORE CO. OK 03/13/2006 02:23 CST Thunderstorm Wind 58 kts. EG 0 0 0.00K 0.00K
Totals: 0 8 3.896M 0.00K